Airfield :
LOGIN :

Register | Disclaimer

   EN    FR    IT 

 










Legend :    VFR   Marginal VFR   IFR   Intensive IFR   Very Intensive IFR
Visi :
Ceiling :
>= 8 km
>= 3000ft
5 to 8 km
1000 to 3000 ft
1500m to 5 km
500 to 1000 ft
800 to 1500m
200 to 500 ft
< 800m
< 200 ft
Symbols :   Thunderstorms  Fog  Heavy snow  Heavy precipitations  Wind > 20 kt
SIGMETs :     Misc.  Thunderstorms  Icing  Turbulence  Mountain Waves  Volcanic Ashes






- Airport Elevation : 1 ft


EGCK - Caernarfon

CURRENT METAR :
  • 131050Z 26007KT 230V290 9999 SCT010 16/12 Q1015

EXPIRED METARs :
  • 131020Z 27006KT 240V300 9999 SCT008 15/12 Q1015
  • 130950Z 27005KT 240V310 9999 SCT010 15/11 Q1015
  • 130920Z 22003KT 180V260 9999 BKN008 15/12 Q1015
  • 130850Z 22003KT 160V270 9999 BKN008 14/12 Q1015
  • 130820Z VRB02KT 9999 BKN008 14/11 Q1015
  • 130750Z AUTO VRB02KT 9999 SCT008/// 13/12 Q1015
  • 130720Z AUTO VRB02KT 9999 FEW013/// OVC045/// 13/12 Q1016
  • 130650Z AUTO 12002KT 9999 BKN008/// 13/12 Q1016
  • 130620Z AUTO 13003KT 080V160 9999 OVC008/// 12/11 Q1016

TAF AMD TAF EGCK
Valid from the 13 at 09:00 until the 13 at 18:00 UTC


130857Z 1309/1318 28004KT 9999 SCT030
PROB30
TEMPO 1309/1316 7000 SHRA BKN008



MET'MAP, your aeronautical weather chart ! - Copyright ORBIFLY December 2007 - Disclaimer

ORBIFLY MET'MAP TEAM :

Programming & Development : Alexandra Zaïnal
Original concept : Baudouin d'Aumeries
Technical & hardware support : Manuel Goepfert
Assistance : Marc-Olivier Méhu




SOURCES & CREDITS :

   NOAA